sensor_id;sensor_type;location;lat;lon;timestamp;pressure;altitude;pressure_sealevel;temperature;humidity
11114;BME280;5610;52.154;9.198;2023-04-26T00:02:00;100821.69;;;5.95;100.00
11114;BME280;5610;52.154;9.198;2023-04-26T00:04:50;100818.31;;;5.90;100.00
11114;BME280;5610;52.154;9.198;2023-04-26T00:07:38;100836.09;;;5.86;100.00
11114;BME280;5610;52.154;9.198;2023-04-26T00:10:25;100828.19;;;5.85;100.00
11114;BME280;5610;52.154;9.198;2023-04-26T00:13:10;100830.94;;;5.60;100.00
11114;BME280;5610;52.154;9.198;2023-04-26T00:15:55;100824.75;;;5.61;100.00
11114;BME280;5610;52.154;9.198;2023-04-26T00:18:41;100833.53;;;5.38;100.00
11114;BME280;5610;52.154;9.198;2023-04-26T00:21:26;100834.63;;;5.56;100.00
11114;BME280;5610;52.154;9.198;2023-04-26T00:24:11;100826.66;;;5.57;100.00
11114;BME280;5610;52.154;9.198;2023-04-26T00:26:57;100828.06;;;5.66;100.00
11114;BME280;5610;52.154;9.198;2023-04-26T00:29:43;100833.34;;;5.42;100.00
11114;BME280;5610;52.154;9.198;2023-04-26T00:32:29;100830.59;;;5.45;100.00
11114;BME280;5610;52.154;9.198;2023-04-26T00:35:15;100838.91;;;5.35;100.00
11114;BME280;5610;52.154;9.198;2023-04-26T00:38:01;100833.75;;;5.32;100.00
11114;BME280;5610;52.154;9.198;2023-04-26T00:40:46;100827.44;;;5.36;100.00
11114;BME280;5610;52.154;9.198;2023-04-26T00:43:33;100833.81;;;5.30;100.00
11114;BME280;5610;52.154;9.198;2023-04-26T00:46:19;100832.75;;;5.36;100.00
11114;BME280;5610;52.154;9.198;2023-04-26T00:49:05;100828.53;;;5.30;100.00
11114;BME280;5610;52.154;9.198;2023-04-26T00:51:51;100824.47;;;5.45;100.00
11114;BME280;5610;52.154;9.198;2023-04-26T00:54:37;100831.13;;;5.32;100.00
11114;BME280;5610;52.154;9.198;2023-04-26T00:57:22;100835.09;;;5.43;100.00
11114;BME280;5610;52.154;9.198;2023-04-26T01:00:09;100831.63;;;5.41;100.00
11114;BME280;5610;52.154;9.198;2023-04-26T01:02:55;100834.97;;;5.46;100.00
11114;BME280;5610;52.154;9.198;2023-04-26T01:05:40;100832.56;;;5.40;100.00
11114;BME280;5610;52.154;9.198;2023-04-26T01:08:27;100845.69;;;5.42;100.00
11114;BME280;5610;52.154;9.198;2023-04-26T01:11:14;100839.19;;;5.27;100.00
11114;BME280;5610;52.154;9.198;2023-04-26T01:13:59;100831.63;;;5.41;100.00
11114;BME280;5610;52.154;9.198;2023-04-26T01:16:48;100833.59;;;5.36;100.00
11114;BME280;5610;52.154;9.198;2023-04-26T01:19:33;100843.69;;;5.25;100.00
11114;BME280;5610;52.154;9.198;2023-04-26T01:22:20;100843.41;;;5.33;100.00
11114;BME280;5610;52.154;9.198;2023-04-26T01:25:10;100848.81;;;5.30;100.00
11114;BME280;5610;52.154;9.198;2023-04-26T01:27:56;100851.81;;;5.19;100.00
11114;BME280;5610;52.154;9.198;2023-04-26T01:30:42;100853.69;;;5.17;100.00
11114;BME280;5610;52.154;9.198;2023-04-26T01:33:28;100854.19;;;5.27;100.00
11114;BME280;5610;52.154;9.198;2023-04-26T01:36:13;100853.38;;;5.24;100.00
11114;BME280;5610;52.154;9.198;2023-04-26T01:38:58;100848.38;;;5.17;100.00
11114;BME280;5610;52.154;9.198;2023-04-26T01:41:44;100852.97;;;5.12;100.00
11114;BME280;5610;52.154;9.198;2023-04-26T01:44:30;100848.81;;;5.05;100.00
11114;BME280;5610;52.154;9.198;2023-04-26T01:47:18;100848.09;;;5.00;100.00
11114;BME280;5610;52.154;9.198;2023-04-26T01:50:04;100847.31;;;4.97;100.00
11114;BME280;5610;52.154;9.198;2023-04-26T01:52:50;100851.16;;;4.89;100.00
11114;BME280;5610;52.154;9.198;2023-04-26T01:55:36;100845.75;;;4.92;100.00
11114;BME280;5610;52.154;9.198;2023-04-26T01:58:22;100855.38;;;4.68;100.00
11114;BME280;5610;52.154;9.198;2023-04-26T02:01:08;100851.94;;;4.66;100.00
11114;BME280;5610;52.154;9.198;2023-04-26T02:03:54;100855.38;;;4.68;100.00
11114;BME280;5610;52.154;9.198;2023-04-26T02:06:39;100851.28;;;4.59;100.00
11114;BME280;5610;52.154;9.198;2023-04-26T02:09:25;100848.66;;;4.58;100.00
11114;BME280;5610;52.154;9.198;2023-04-26T02:12:11;100848.31;;;4.42;100.00
11114;BME280;5610;52.154;9.198;2023-04-26T02:14:57;100854.31;;;4.47;100.00
11114;BME280;5610;52.154;9.198;2023-04-26T02:17:43;100853.84;;;4.34;100.00
11114;BME280;5610;52.154;9.198;2023-04-26T02:20:28;100846.25;;;4.25;100.00
11114;BME280;5610;52.154;9.198;2023-04-26T02:23:13;100846.25;;;4.25;100.00
11114;BME280;5610;52.154;9.198;2023-04-26T02:26:00;100849.94;;;4.20;100.00
11114;BME280;5610;52.154;9.198;2023-04-26T02:28:46;100851.91;;;4.13;100.00
11114;BME280;5610;52.154;9.198;2023-04-26T02:31:32;100858.66;;;4.22;100.00
11114;BME280;5610;52.154;9.198;2023-04-26T02:34:17;100859.75;;;4.14;100.00
11114;BME280;5610;52.154;9.198;2023-04-26T02:37:03;100859.88;;;4.11;100.00
11114;BME280;5610;52.154;9.198;2023-04-26T02:39:49;100850.38;;;4.06;100.00
11114;BME280;5610;52.154;9.198;2023-04-26T02:42:35;100855.56;;;4.09;100.00
11114;BME280;5610;52.154;9.198;2023-04-26T02:45:20;100850.56;;;4.00;100.00
11114;BME280;5610;52.154;9.198;2023-04-26T02:48:07;100857.66;;;3.98;100.00
11114;BME280;5610;52.154;9.198;2023-04-26T02:50:52;100865.00;;;3.88;100.00
11114;BME280;5610;52.154;9.198;2023-04-26T02:53:37;100865.13;;;3.83;100.00
11114;BME280;5610;52.154;9.198;2023-04-26T02:56:22;100857.09;;;3.88;100.00
11114;BME280;5610;52.154;9.198;2023-04-26T02:59:07;100857.69;;;3.68;100.00
11114;BME280;5610;52.154;9.198;2023-04-26T03:01:53;100860.38;;;3.65;100.00
11114;BME280;5610;52.154;9.198;2023-04-26T03:04:40;100855.19;;;3.64;100.00
11114;BME280;5610;52.154;9.198;2023-04-26T03:07:25;100856.09;;;3.63;100.00
11114;BME280;5610;52.154;9.198;2023-04-26T03:10:10;100869.09;;;3.69;100.00
11114;BME280;5610;52.154;9.198;2023-04-26T03:12:56;100874.63;;;3.60;100.00
11114;BME280;5610;52.154;9.198;2023-04-26T03:15:43;100868.44;;;3.61;100.00
11114;BME280;5610;52.154;9.198;2023-04-26T03:18:28;100871.72;;;3.69;100.00
11114;BME280;5610;52.154;9.198;2023-04-26T03:21:15;100857.13;;;3.57;100.00
11114;BME280;5610;52.154;9.198;2023-04-26T03:24:01;100846.59;;;3.57;100.00
11114;BME280;5610;52.154;9.198;2023-04-26T03:26:47;100857.94;;;3.59;100.00
11114;BME280;5610;52.154;9.198;2023-04-26T03:29:32;100850.22;;;3.53;100.00
11114;BME280;5610;52.154;9.198;2023-04-26T03:32:18;100854.63;;;3.52;100.00
11114;BME280;5610;52.154;9.198;2023-04-26T03:35:03;100855.41;;;3.56;100.00
11114;BME280;5610;52.154;9.198;2023-04-26T03:37:50;100864.34;;;3.50;100.00
11114;BME280;5610;52.154;9.198;2023-04-26T03:40:35;100861.88;;;3.44;100.00
11114;BME280;5610;52.154;9.198;2023-04-26T03:43:20;100869.88;;;3.41;100.00
11114;BME280;5610;52.154;9.198;2023-04-26T03:46:06;100864.56;;;3.43;100.00
11114;BME280;5610;52.154;9.198;2023-04-26T03:48:51;100861.25;;;3.36;100.00
11114;BME280;5610;52.154;9.198;2023-04-26T03:51:36;100854.16;;;3.38;100.00
11114;BME280;5610;52.154;9.198;2023-04-26T03:54:23;100861.34;;;3.33;100.00
11114;BME280;5610;52.154;9.198;2023-04-26T03:57:08;100863.97;;;3.33;100.00
11114;BME280;5610;52.154;9.198;2023-04-26T03:59:54;100860.69;;;3.25;100.00
11114;BME280;5610;52.154;9.198;2023-04-26T04:02:40;100851.72;;;3.30;100.00
11114;BME280;5610;52.154;9.198;2023-04-26T04:05:27;100856.41;;;3.21;100.00
11114;BME280;5610;52.154;9.198;2023-04-26T04:08:12;100854.47;;;3.27;100.00
11114;BME280;5610;52.154;9.198;2023-04-26T04:11:00;100852.78;;;3.25;100.00
11114;BME280;5610;52.154;9.198;2023-04-26T04:13:45;100856.41;;;3.21;100.00
11114;BME280;5610;52.154;9.198;2023-04-26T04:16:31;100855.81;;;3.11;100.00
11114;BME280;5610;52.154;9.198;2023-04-26T04:19:16;100862.00;;;3.09;100.00
11114;BME280;5610;52.154;9.198;2023-04-26T04:22:02;100868.59;;;3.23;100.00
11114;BME280;5610;52.154;9.198;2023-04-26T04:24:48;100867.72;;;3.24;100.00
11114;BME280;5610;52.154;9.198;2023-04-26T04:27:34;100872.09;;;3.25;100.00
11114;BME280;5610;52.154;9.198;2023-04-26T04:30:21;100872.00;;;3.28;100.00
11114;BME280;5610;52.154;9.198;2023-04-26T04:33:07;100874.56;;;3.32;100.00
11114;BME280;5610;52.154;9.198;2023-04-26T04:35:53;100878.91;;;3.33;100.00
11114;BME280;5610;52.154;9.198;2023-04-26T04:38:38;100884.19;;;3.31;100.00
11114;BME280;5610;52.154;9.198;2023-04-26T04:41:25;100878.66;;;3.42;100.00
11114;BME280;5610;52.154;9.198;2023-04-26T04:44:12;100882.94;;;3.44;100.00
11114;BME280;5610;52.154;9.198;2023-04-26T04:46:59;100889.75;;;3.53;100.00
11114;BME280;5610;52.154;9.198;2023-04-26T04:49:44;100898.59;;;3.50;100.00
11114;BME280;5610;52.154;9.198;2023-04-26T04:52:30;100893.25;;;3.52;100.00
11114;BME280;5610;52.154;9.198;2023-04-26T04:55:16;100895.66;;;3.61;100.00
11114;BME280;5610;52.154;9.198;2023-04-26T04:58:02;100900.56;;;3.73;100.00
11114;BME280;5610;52.154;9.198;2023-04-26T05:00:50;100901.22;;;3.81;100.00
11114;BME280;5610;52.154;9.198;2023-04-26T05:03:41;100899.34;;;3.85;100.00
11114;BME280;5610;52.154;9.198;2023-04-26T05:06:26;100889.28;;;3.98;100.00
11114;BME280;5610;52.154;9.198;2023-04-26T05:09:12;100904.66;;;4.13;100.00
11114;BME280;5610;52.154;9.198;2023-04-26T05:11:57;100895.63;;;4.20;100.00
11114;BME280;5610;52.154;9.198;2023-04-26T05:14:42;100894.63;;;4.24;100.00
11114;BME280;5610;52.154;9.198;2023-04-26T05:17:29;100898.03;;;4.28;100.00
11114;BME280;5610;52.154;9.198;2023-04-26T05:20:15;100902.31;;;4.32;100.00
11114;BME280;5610;52.154;9.198;2023-04-26T05:23:01;100895.81;;;4.42;100.00
11114;BME280;5610;52.154;9.198;2023-04-26T05:25:46;100901.75;;;4.49;100.00
11114;BME280;5610;52.154;9.198;2023-04-26T05:28:50;100894.44;;;4.57;100.00
11114;BME280;5610;52.154;9.198;2023-04-26T05:31:42;100904.75;;;4.64;100.00
11114;BME280;5610;52.154;9.198;2023-04-26T05:34:47;100905.22;;;4.77;100.00
11114;BME280;5610;52.154;9.198;2023-04-26T05:37:34;100904.00;;;4.87;100.00
11114;BME280;5610;52.154;9.198;2023-04-26T05:40:19;100900.38;;;4.90;100.00
11114;BME280;5610;52.154;9.198;2023-04-26T05:43:05;100900.94;;;5.00;100.00
11114;BME280;5610;52.154;9.198;2023-04-26T05:45:50;100908.56;;;5.09;100.00
11114;BME280;5610;52.154;9.198;2023-04-26T05:48:36;100908.88;;;5.24;100.00
11114;BME280;5610;52.154;9.198;2023-04-26T05:51:25;100917.97;;;5.41;100.00
11114;BME280;5610;52.154;9.198;2023-04-26T05:54:11;100919.69;;;5.67;100.00
11114;BME280;5610;52.154;9.198;2023-04-26T05:56:57;100927.47;;;5.95;100.00
11114;BME280;5610;52.154;9.198;2023-04-26T05:59:43;100925.78;;;6.16;100.00
11114;BME280;5610;52.154;9.198;2023-04-26T06:02:29;100923.72;;;6.24;100.00
11114;BME280;5610;52.154;9.198;2023-04-26T06:05:15;100920.91;;;6.28;100.00
11114;BME280;5610;52.154;9.198;2023-04-26T06:08:02;100914.13;;;6.21;100.00
11114;BME280;5610;52.154;9.198;2023-04-26T06:10:47;100919.91;;;6.31;100.00
11114;BME280;5610;52.154;9.198;2023-04-26T06:13:32;100918.56;;;6.65;100.00
11114;BME280;5610;52.154;9.198;2023-04-26T06:16:17;100917.66;;;6.86;100.00
11114;BME280;5610;52.154;9.198;2023-04-26T06:19:02;100913.72;;;7.16;100.00
11114;BME280;5610;52.154;9.198;2023-04-26T06:21:48;100923.59;;;7.33;100.00
11114;BME280;5610;52.154;9.198;2023-04-26T06:24:36;100916.75;;;7.48;100.00
11114;BME280;5610;52.154;9.198;2023-04-26T06:27:21;100913.03;;;7.52;100.00
11114;BME280;5610;52.154;9.198;2023-04-26T06:30:07;100915.31;;;7.60;100.00
11114;BME280;5610;52.154;9.198;2023-04-26T06:32:56;100922.50;;;7.58;100.00
11114;BME280;5610;52.154;9.198;2023-04-26T06:35:43;100923.69;;;7.71;100.00
11114;BME280;5610;52.154;9.198;2023-04-26T06:38:29;100924.06;;;7.82;100.00
11114;BME280;5610;52.154;9.198;2023-04-26T06:41:16;100934.38;;;7.88;100.00
11114;BME280;5610;52.154;9.198;2023-04-26T06:44:05;100922.53;;;7.95;100.00
11114;BME280;5610;52.154;9.198;2023-04-26T06:46:52;100920.41;;;8.04;100.00
11114;BME280;5610;52.154;9.198;2023-04-26T06:49:38;100927.38;;;8.06;100.00
11114;BME280;5610;52.154;9.198;2023-04-26T06:52:23;100927.28;;;8.08;100.00
11114;BME280;5610;52.154;9.198;2023-04-26T06:55:09;100919.19;;;8.11;100.00
11114;BME280;5610;52.154;9.198;2023-04-26T06:57:55;100926.19;;;8.31;100.00
11114;BME280;5610;52.154;9.198;2023-04-26T07:00:41;100932.56;;;8.64;100.00
11114;BME280;5610;52.154;9.198;2023-04-26T07:03:26;100926.22;;;9.03;100.00
11114;BME280;5610;52.154;9.198;2023-04-26T07:06:12;100927.81;;;9.24;100.00
11114;BME280;5610;52.154;9.198;2023-04-26T07:08:57;100932.53;;;9.52;100.00
11114;BME280;5610;52.154;9.198;2023-04-26T07:11:44;100936.56;;;9.93;100.00
11114;BME280;5610;52.154;9.198;2023-04-26T07:14:31;100927.59;;;10.11;100.00
11114;BME280;5610;52.154;9.198;2023-04-26T07:17:18;100930.81;;;10.33;91.42
11114;BME280;5610;52.154;9.198;2023-04-26T07:20:06;100941.47;;;10.65;93.53
11114;BME280;5610;52.154;9.198;2023-04-26T07:22:51;100944.88;;;10.83;84.94
11114;BME280;5610;52.154;9.198;2023-04-26T07:25:36;100941.16;;;11.01;82.04
11114;BME280;5610;52.154;9.198;2023-04-26T07:28:21;100937.13;;;11.24;82.24
11114;BME280;5610;52.154;9.198;2023-04-26T07:31:08;100933.44;;;11.41;79.06
11114;BME280;5610;52.154;9.198;2023-04-26T07:33:53;100938.03;;;11.09;74.82
11114;BME280;5610;52.154;9.198;2023-04-26T07:36:38;100946.72;;;11.57;78.00
11114;BME280;5610;52.154;9.198;2023-04-26T07:39:23;100934.28;;;11.41;71.31
11114;BME280;5610;52.154;9.198;2023-04-26T07:42:09;100932.22;;;11.61;75.64
11114;BME280;5610;52.154;9.198;2023-04-26T07:44:54;100932.28;;;11.89;76.06
11114;BME280;5610;52.154;9.198;2023-04-26T07:47:41;100939.25;;;12.06;75.72
11114;BME280;5610;52.154;9.198;2023-04-26T07:50:26;100936.00;;;12.01;71.05
11114;BME280;5610;52.154;9.198;2023-04-26T07:53:11;100936.94;;;12.14;68.57
11114;BME280;5610;52.154;9.198;2023-04-26T07:55:56;100934.25;;;12.28;68.20
11114;BME280;5610;52.154;9.198;2023-04-26T07:58:42;100933.59;;;12.10;67.90
11114;BME280;5610;52.154;9.198;2023-04-26T08:01:27;100933.31;;;12.15;66.43
11114;BME280;5610;52.154;9.198;2023-04-26T08:04:13;100937.94;;;11.69;67.62
11114;BME280;5610;52.154;9.198;2023-04-26T08:06:59;100931.88;;;11.81;67.12
11114;BME280;5610;52.154;9.198;2023-04-26T08:09:44;100927.09;;;11.58;72.45
11114;BME280;5610;52.154;9.198;2023-04-26T08:12:30;100930.50;;;11.60;66.62
11114;BME280;5610;52.154;9.198;2023-04-26T08:15:15;100940.75;;;10.77;63.96
11114;BME280;5610;52.154;9.198;2023-04-26T08:18:00;100941.59;;;11.23;64.19
11114;BME280;5610;52.154;9.198;2023-04-26T08:20:46;100940.16;;;11.76;68.12
11114;BME280;5610;52.154;9.198;2023-04-26T08:23:32;100927.56;;;12.35;67.41
11114;BME280;5610;52.154;9.198;2023-04-26T08:26:19;100932.66;;;12.53;65.67
11114;BME280;5610;52.154;9.198;2023-04-26T08:29:05;100931.84;;;12.38;64.75
11114;BME280;5610;52.154;9.198;2023-04-26T08:31:50;100937.41;;;12.21;60.96
11114;BME280;5610;52.154;9.198;2023-04-26T08:34:35;100940.38;;;12.02;64.40
11114;BME280;5610;52.154;9.198;2023-04-26T08:37:22;100927.81;;;12.72;61.70
11114;BME280;5610;52.154;9.198;2023-04-26T08:40:08;100924.59;;;13.34;60.49
11114;BME280;5610;52.154;9.198;2023-04-26T08:42:53;100923.50;;;14.00;57.60
11114;BME280;5610;52.154;9.198;2023-04-26T08:45:39;100924.38;;;14.00;57.79
11114;BME280;5610;52.154;9.198;2023-04-26T08:48:26;100928.44;;;13.81;55.60
11114;BME280;5610;52.154;9.198;2023-04-26T08:51:12;100932.66;;;13.46;55.95
11114;BME280;5610;52.154;9.198;2023-04-26T08:54:00;100934.44;;;12.67;53.51
11114;BME280;5610;52.154;9.198;2023-04-26T08:56:47;100938.19;;;11.94;56.54
11114;BME280;5610;52.154;9.198;2023-04-26T08:59:35;100934.16;;;11.73;61.20
11114;BME280;5610;52.154;9.198;2023-04-26T09:02:21;100942.63;;;11.65;61.19
11114;BME280;5610;52.154;9.198;2023-04-26T09:05:07;100932.09;;;11.92;62.34
11114;BME280;5610;52.154;9.198;2023-04-26T09:07:55;100934.97;;;12.45;61.78
11114;BME280;5610;52.154;9.198;2023-04-26T09:10:43;100922.50;;;13.12;59.52
11114;BME280;5610;52.154;9.198;2023-04-26T09:13:28;100933.19;;;13.77;57.43
11114;BME280;5610;52.154;9.198;2023-04-26T09:16:13;100926.84;;;14.04;53.43
11114;BME280;5610;52.154;9.198;2023-04-26T09:18:59;100915.41;;;15.10;53.98
11114;BME280;5610;52.154;9.198;2023-04-26T09:21:45;100916.22;;;15.34;52.52
11114;BME280;5610;52.154;9.198;2023-04-26T09:24:45;100922.03;;;14.93;52.17
11114;BME280;5610;52.154;9.198;2023-04-26T09:27:37;100924.75;;;14.20;53.03
11114;BME280;5610;52.154;9.198;2023-04-26T09:30:22;100929.09;;;13.97;51.82
11114;BME280;5610;52.154;9.198;2023-04-26T09:33:08;100923.44;;;13.76;52.25
11114;BME280;5610;52.154;9.198;2023-04-26T09:35:53;100929.84;;;13.99;52.94
11114;BME280;5610;52.154;9.198;2023-04-26T09:38:41;100935.03;;;14.26;54.09
11114;BME280;5610;52.154;9.198;2023-04-26T09:41:41;100937.63;;;14.27;49.47
11114;BME280;5610;52.154;9.198;2023-04-26T09:44:28;100933.63;;;14.46;48.86
11114;BME280;5610;52.154;9.198;2023-04-26T09:47:13;100936.88;;;14.86;50.33
11114;BME280;5610;52.154;9.198;2023-04-26T09:49:59;100931.91;;;15.17;49.45
11114;BME280;5610;52.154;9.198;2023-04-26T09:52:44;100929.88;;;14.72;50.75
11114;BME280;5610;52.154;9.198;2023-04-26T09:55:29;100934.91;;;14.40;51.28
11114;BME280;5610;52.154;9.198;2023-04-26T09:58:15;100935.19;;;13.99;51.62
11114;BME280;5610;52.154;9.198;2023-04-26T10:01:02;100937.03;;;13.86;52.06
11114;BME280;5610;52.154;9.198;2023-04-26T10:03:48;100931.47;;;13.89;52.51
11114;BME280;5610;52.154;9.198;2023-04-26T10:06:34;100934.63;;;14.19;52.52
11114;BME280;5610;52.154;9.198;2023-04-26T10:09:19;100937.06;;;14.48;50.69
11114;BME280;5610;52.154;9.198;2023-04-26T10:12:04;100930.84;;;14.71;48.83
11114;BME280;5610;52.154;9.198;2023-04-26T10:14:50;100927.38;;;15.52;47.54
11114;BME280;5610;52.154;9.198;2023-04-26T10:17:37;100937.44;;;15.84;46.44
11114;BME280;5610;52.154;9.198;2023-04-26T10:20:23;100937.06;;;15.66;46.33
11114;BME280;5610;52.154;9.198;2023-04-26T10:23:16;100940.16;;;15.37;48.24
11114;BME280;5610;52.154;9.198;2023-04-26T10:26:04;100941.84;;;14.55;48.07
11114;BME280;5610;52.154;9.198;2023-04-26T10:28:53;100943.88;;;14.02;48.20
11114;BME280;5610;52.154;9.198;2023-04-26T10:32:05;100941.53;;;13.47;49.37
11114;BME280;5610;52.154;9.198;2023-04-26T10:35:09;100934.25;;;13.09;50.95
11114;BME280;5610;52.154;9.198;2023-04-26T10:38:10;100927.16;;;12.42;51.53
11114;BME280;5610;52.154;9.198;2023-04-26T10:41:32;100933.47;;;12.41;52.31
11114;BME280;5610;52.154;9.198;2023-04-26T10:44:36;100933.66;;;12.37;53.48
11114;BME280;5610;52.154;9.198;2023-04-26T10:47:28;100925.31;;;12.56;53.00
11114;BME280;5610;52.154;9.198;2023-04-26T10:50:14;100924.97;;;12.88;52.08
11114;BME280;5610;52.154;9.198;2023-04-26T10:53:05;100923.56;;;13.62;50.54
11114;BME280;5610;52.154;9.198;2023-04-26T10:55:50;100912.41;;;14.30;51.00
11114;BME280;5610;52.154;9.198;2023-04-26T10:58:40;100918.06;;;15.45;49.26
11114;BME280;5610;52.154;9.198;2023-04-26T11:01:25;100911.25;;;17.80;44.99
11114;BME280;5610;52.154;9.198;2023-04-26T11:04:11;100896.81;;;23.00;37.29
11114;BME280;5610;52.154;9.198;2023-04-26T11:07:01;100884.56;;;27.65;31.20
11114;BME280;5610;52.154;9.198;2023-04-26T11:09:48;100887.88;;;27.88;29.47
11114;BME280;5610;52.154;9.198;2023-04-26T11:12:33;100885.38;;;25.48;30.47
11114;BME280;5610;52.154;9.198;2023-04-26T11:15:20;100884.03;;;23.50;31.63
11114;BME280;5610;52.154;9.198;2023-04-26T11:18:05;100888.06;;;21.80;33.33
11114;BME280;5610;52.154;9.198;2023-04-26T11:20:50;100888.78;;;20.03;35.85
11114;BME280;5610;52.154;9.198;2023-04-26T11:23:36;100895.47;;;18.56;37.29
11114;BME280;5610;52.154;9.198;2023-04-26T11:26:21;100890.19;;;17.22;39.38
11114;BME280;5610;52.154;9.198;2023-04-26T11:29:07;100892.84;;;16.04;41.77
11114;BME280;5610;52.154;9.198;2023-04-26T11:31:57;100900.19;;;14.87;43.80
11114;BME280;5610;52.154;9.198;2023-04-26T11:34:42;100905.31;;;14.29;45.55
11114;BME280;5610;52.154;9.198;2023-04-26T11:37:30;100912.72;;;13.76;45.70
11114;BME280;5610;52.154;9.198;2023-04-26T11:40:16;100904.25;;;13.31;48.70
11114;BME280;5610;52.154;9.198;2023-04-26T11:43:03;100908.53;;;13.21;47.98
11114;BME280;5610;52.154;9.198;2023-04-26T11:45:48;100910.56;;;12.90;48.80
11114;BME280;5610;52.154;9.198;2023-04-26T11:48:36;100915.28;;;13.52;47.11
11114;BME280;5610;52.154;9.198;2023-04-26T11:51:22;100919.91;;;13.63;47.26
11114;BME280;5610;52.154;9.198;2023-04-26T11:54:08;100911.22;;;13.59;47.25
11114;BME280;5610;52.154;9.198;2023-04-26T11:56:54;100925.03;;;13.40;49.12
11114;BME280;5610;52.154;9.198;2023-04-26T11:59:39;100922.50;;;13.12;49.58
11114;BME280;5610;52.154;9.198;2023-04-26T12:02:24;100927.22;;;12.81;51.45
11114;BME280;5610;52.154;9.198;2023-04-26T12:05:10;100917.75;;;12.63;50.17
11114;BME280;5610;52.154;9.198;2023-04-26T12:07:58;100914.75;;;12.68;50.26
11114;BME280;5610;52.154;9.198;2023-04-26T12:10:45;100916.09;;;12.60;47.83
11114;BME280;5610;52.154;9.198;2023-04-26T12:13:30;100926.00;;;13.00;48.70
11114;BME280;5610;52.154;9.198;2023-04-26T12:16:16;100925.25;;;13.63;48.54
11114;BME280;5610;52.154;9.198;2023-04-26T12:19:04;100917.56;;;17.90;43.01
11114;BME280;5610;52.154;9.198;2023-04-26T12:21:51;100912.91;;;21.23;36.40
11114;BME280;5610;52.154;9.198;2023-04-26T12:24:37;100911.97;;;20.61;36.24
11114;BME280;5610;52.154;9.198;2023-04-26T12:27:23;100919.28;;;19.10;39.04
11114;BME280;5610;52.154;9.198;2023-04-26T12:30:08;100916.34;;;17.73;40.85
11114;BME280;5610;52.154;9.198;2023-04-26T12:32:54;100919.81;;;16.47;43.28
11114;BME280;5610;52.154;9.198;2023-04-26T12:35:39;100922.25;;;15.60;43.29
11114;BME280;5610;52.154;9.198;2023-04-26T12:38:26;100917.88;;;14.28;44.48
11114;BME280;5610;52.154;9.198;2023-04-26T12:41:11;100921.25;;;14.43;46.92
11114;BME280;5610;52.154;9.198;2023-04-26T12:43:57;100919.34;;;14.45;45.46
11114;BME280;5610;52.154;9.198;2023-04-26T12:46:42;100922.53;;;14.87;45.92
11114;BME280;5610;52.154;9.198;2023-04-26T12:49:27;100912.28;;;15.27;46.60
11114;BME280;5610;52.154;9.198;2023-04-26T12:52:13;100911.38;;;15.51;44.57
11114;BME280;5610;52.154;9.198;2023-04-26T12:54:59;100914.41;;;15.57;43.75
11114;BME280;5610;52.154;9.198;2023-04-26T12:57:45;100909.00;;;15.24;43.14
11114;BME280;5610;52.154;9.198;2023-04-26T13:00:30;100913.72;;;14.85;45.56
11114;BME280;5610;52.154;9.198;2023-04-26T13:03:16;100919.13;;;14.48;46.79
11114;BME280;5610;52.154;9.198;2023-04-26T13:06:01;100917.91;;;14.16;45.95
11114;BME280;5610;52.154;9.198;2023-04-26T13:08:47;100919.34;;;13.96;47.63
11114;BME280;5610;52.154;9.198;2023-04-26T13:11:33;100922.47;;;13.90;48.52
11114;BME280;5610;52.154;9.198;2023-04-26T13:14:19;100921.91;;;14.10;48.89
11114;BME280;5610;52.154;9.198;2023-04-26T13:17:06;100919.66;;;14.41;47.09
11114;BME280;5610;52.154;9.198;2023-04-26T13:19:52;100919.53;;;14.79;46.65
11114;BME280;5610;52.154;9.198;2023-04-26T13:22:38;100912.78;;;15.32;44.85
11114;BME280;5610;52.154;9.198;2023-04-26T13:25:25;100926.25;;;15.44;42.89
11114;BME280;5610;52.154;9.198;2023-04-26T13:28:12;100927.53;;;15.84;43.43
11114;BME280;5610;52.154;9.198;2023-04-26T13:30:57;100922.41;;;16.26;41.64
11114;BME280;5610;52.154;9.198;2023-04-26T13:33:43;100918.47;;;16.41;43.42
11114;BME280;5610;52.154;9.198;2023-04-26T13:36:30;100925.34;;;17.42;42.60
11114;BME280;5610;52.154;9.198;2023-04-26T13:39:15;100925.69;;;18.40;39.15
11114;BME280;5610;52.154;9.198;2023-04-26T13:42:00;100925.16;;;22.39;33.34
11114;BME280;5610;52.154;9.198;2023-04-26T13:44:48;100910.22;;;22.86;33.66
11114;BME280;5610;52.154;9.198;2023-04-26T13:47:34;100917.34;;;22.02;35.78
11114;BME280;5610;52.154;9.198;2023-04-26T13:50:20;100919.31;;;21.58;35.03
11114;BME280;5610;52.154;9.198;2023-04-26T13:53:05;100922.41;;;21.45;35.77
11114;BME280;5610;52.154;9.198;2023-04-26T13:55:51;100904.75;;;26.93;28.65
11114;BME280;5610;52.154;9.198;2023-04-26T13:58:36;100895.34;;;31.42;25.63
11114;BME280;5610;52.154;9.198;2023-04-26T14:01:23;100902.53;;;27.03;28.69
11114;BME280;5610;52.154;9.198;2023-04-26T14:04:09;100901.19;;;23.83;31.96
11114;BME280;5610;52.154;9.198;2023-04-26T14:06:54;100904.78;;;21.67;34.49
11114;BME280;5610;52.154;9.198;2023-04-26T14:09:40;100909.06;;;20.17;35.33
11114;BME280;5610;52.154;9.198;2023-04-26T14:12:25;100913.16;;;19.18;38.20
11114;BME280;5610;52.154;9.198;2023-04-26T14:15:11;100911.84;;;18.14;39.11
11114;BME280;5610;52.154;9.198;2023-04-26T14:17:57;100914.63;;;17.30;40.43
11114;BME280;5610;52.154;9.198;2023-04-26T14:20:42;100919.28;;;16.64;42.99
11114;BME280;5610;52.154;9.198;2023-04-26T14:23:28;100924.16;;;15.93;42.73
11114;BME280;5610;52.154;9.198;2023-04-26T14:26:13;100920.59;;;15.35;44.24
11114;BME280;5610;52.154;9.198;2023-04-26T14:28:58;100924.84;;;14.92;44.98
11114;BME280;5610;52.154;9.198;2023-04-26T14:31:44;100926.84;;;14.53;45.87
11114;BME280;5610;52.154;9.198;2023-04-26T14:34:31;100928.19;;;14.22;46.04
11114;BME280;5610;52.154;9.198;2023-04-26T14:37:18;100935.38;;;14.21;46.89
11114;BME280;5610;52.154;9.198;2023-04-26T14:40:06;100930.22;;;14.31;46.93
11114;BME280;5610;52.154;9.198;2023-04-26T14:42:52;100930.03;;;14.58;45.00